Time;durP1;ratioP1;P1;durP2;ratioP2;P2;SDS_P1;SDS_P2;PMS_P1;PMS_P2;Temp;Humidity;BMP_temperature;BMP_pressure;BME280_temperature;BME280_humidity;BME280_pressure;Samples;Min_cycle;Max_cycle;Signal;HPM_P1;HPM_P2
2022/05/02 00:01:40;;;;;;;0.00;0.00;;;17.80;99.90;;;;;;5052837;28;20060;-73
2022/05/02 00:04:06;;;;;;;0.00;0.00;;;18.00;99.90;;;;;;5046632;28;20021;-71
2022/05/02 00:06:32;;;;;;;0.10;0.10;;;18.10;99.90;;;;;;5056949;28;20017;-72
2022/05/02 00:08:58;;;;;;;10.07;9.65;;;18.20;99.90;;;;;;5056488;28;20025;-72
2022/05/02 00:11:25;;;;;;;0.00;0.00;;;18.30;99.90;;;;;;5047909;28;20112;-73
2022/05/02 00:13:51;;;;;;;0.00;0.00;;;18.40;99.90;;;;;;5052581;28;20358;-73
2022/05/02 00:16:17;;;;;;;0.00;0.00;;;18.50;99.90;;;;;;5052210;28;20056;-73
2022/05/02 00:18:43;;;;;;;6.38;6.03;;;18.50;99.90;;;;;;5053310;28;20025;-72
2022/05/02 00:21:09;;;;;;;0.00;0.00;;;18.50;99.90;;;;;;5051770;28;20112;-72
2022/05/02 00:23:35;;;;;;;0.30;0.30;;;18.30;99.90;;;;;;5053005;28;20321;-73
2022/05/02 00:26:01;;;;;;;6.60;0.93;;;18.10;99.90;;;;;;5052950;28;20032;-73
2022/05/02 00:28:27;;;;;;;0.65;0.65;;;18.10;99.90;;;;;;5052930;28;20028;-73
2022/05/02 00:30:53;;;;;;;8.55;5.75;;;18.20;99.90;;;;;;5051581;28;20083;-72
2022/05/02 00:33:20;;;;;;;3.40;1.27;;;18.20;99.90;;;;;;5053187;28;20100;-73
2022/05/02 00:35:46;;;;;;;1.40;1.35;;;18.10;99.90;;;;;;5051681;28;20025;-73
2022/05/02 00:38:12;;;;;;;0.65;0.65;;;18.00;99.90;;;;;;5051387;28;20048;-72
2022/05/02 00:40:38;;;;;;;0.75;0.75;;;18.00;99.90;;;;;;5052785;28;20025;-73
2022/05/02 00:43:05;;;;;;;1.95;1.85;;;17.40;99.90;;;;;;5053061;28;20025;-73
2022/05/02 00:45:37;;;;;;;0.00;0.00;;;17.70;99.90;;;;;;5052397;28;20029;-73
2022/05/02 00:48:03;;;;;;;2.42;2.30;;;18.10;99.90;;;;;;5053014;28;20077;-72
2022/05/02 00:50:33;;;;;;;1.90;1.40;;;18.20;99.90;;;;;;5051344;28;20035;-73
2022/05/02 00:52:59;;;;;;;0.80;0.80;;;18.30;99.90;;;;;;5052412;28;20069;-73
2022/05/02 00:55:26;;;;;;;0.00;0.00;;;18.70;99.90;;;;;;5052564;28;20388;-73
2022/05/02 00:57:53;;;;;;;1.48;1.15;;;19.10;99.90;;;;;;5044556;28;20029;-73
2022/05/02 01:00:19;;;;;;;3.03;1.45;;;19.70;99.90;;;;;;5041149;28;20152;-73
2022/05/02 01:02:46;;;;;;;0.00;0.00;;;20.00;99.90;;;;;;5046122;28;20059;-71
2022/05/02 01:05:12;;;;;;;0.10;0.10;;;20.10;99.90;;;;;;5048905;28;20059;-72
2022/05/02 01:07:39;;;;;;;0.00;0.00;;;20.10;99.90;;;;;;5073782;28;20056;-72
2022/05/02 01:10:05;;;;;;;0.00;0.00;;;20.40;99.90;;;;;;5040628;28;20022;-72
2022/05/02 01:12:31;;;;;;;0.00;0.00;;;20.80;99.90;;;;;;5045938;28;20016;-72
2022/05/02 01:14:58;;;;;;;0.00;0.00;;;21.20;99.90;;;;;;5040073;28;20119;-71
2022/05/02 01:17:24;;;;;;;0.00;0.00;;;21.40;99.90;;;;;;5045195;28;20036;-73
2022/05/02 01:19:50;;;;;;;1.65;0.38;;;21.40;99.90;;;;;;5046051;28;20022;-72
2022/05/02 01:22:17;;;;;;;3.72;0.75;;;21.80;99.90;;;;;;5044786;28;20030;-72
2022/05/02 01:24:45;;;;;;;2.80;2.63;;;22.10;99.90;;;;;;5055721;28;20384;-72
2022/05/02 01:27:12;;;;;;;0.00;0.00;;;22.40;99.90;;;;;;5056026;28;20040;-71
2022/05/02 01:29:42;;;;;;;0.00;0.00;;;22.60;99.90;;;;;;5055531;28;20025;-71
2022/05/02 01:32:10;;;;;;;0.55;0.55;;;23.10;99.90;;;;;;5046636;28;20071;-73
2022/05/02 01:34:40;;;;;;;0.00;0.00;;;23.30;95.10;;;;;;5040846;28;20021;-73
2022/05/02 01:37:08;;;;;;;2.90;2.72;;;24.00;90.00;;;;;;5051160;28;20032;-72
2022/05/02 01:39:34;;;;;;;0.00;0.00;;;24.50;90.20;;;;;;5052364;28;20523;-72
2022/05/02 01:42:05;;;;;;;0.43;0.43;;;24.20;88.90;;;;;;5043519;28;20029;-72
2022/05/02 01:44:31;;;;;;;1.95;1.65;;;24.20;90.00;;;;;;5043854;28;20020;-73
2022/05/02 01:46:57;;;;;;;0.00;0.00;;;24.40;82.90;;;;;;5042722;28;20037;-72
2022/05/02 01:49:24;;;;;;;0.00;0.00;;;24.70;82.50;;;;;;5041794;28;20060;-71
2022/05/02 01:51:51;;;;;;;3.80;3.60;;;25.30;67.20;;;;;;5046646;28;20535;-72
2022/05/02 01:54:17;;;;;;;0.00;0.00;;;25.70;63.40;;;;;;5051502;28;20498;-72
2022/05/02 01:56:44;;;;;;;0.20;0.20;;;26.20;61.40;;;;;;5041547;28;20033;-72
2022/05/02 01:59:11;;;;;;;0.60;0.60;;;26.70;58.00;;;;;;5049995;28;20029;-72
2022/05/02 02:01:37;;;;;;;0.25;0.10;;;26.60;58.90;;;;;;5049564;28;20071;-72
2022/05/02 02:06:50;;;;;;;0.00;0.00;;;27.30;55.00;;;;;;5041374;28;20028;-71
2022/05/02 02:09:16;;;;;;;0.00;0.00;;;28.00;53.50;;;;;;5036409;28;20033;-72
2022/05/02 02:11:43;;;;;;;0.03;0.03;;;29.20;51.20;;;;;;5042591;28;20034;-71
2022/05/02 02:14:09;;;;;;;0.00;0.00;;;29.90;49.10;;;;;;5045811;28;20026;-72
2022/05/02 02:16:35;;;;;;;0.52;0.52;;;30.30;47.40;;;;;;5034696;28;20056;-72
2022/05/02 02:19:01;;;;;;;5.68;5.28;;;30.40;45.90;;;;;;5049505;28;20489;-72
2022/05/02 02:21:27;;;;;;;0.00;0.00;;;30.30;45.60;;;;;;5048751;28;20071;-73
2022/05/02 02:23:54;;;;;;;0.00;0.00;;;29.60;45.70;;;;;;5050916;28;20021;-71
2022/05/02 02:26:20;;;;;;;0.00;0.00;;;29.40;45.50;;;;;;5050977;28;20023;-73
2022/05/02 02:28:46;;;;;;;8.38;3.58;;;29.40;45.20;;;;;;5050904;28;20036;-72
2022/05/02 02:31:12;;;;;;;0.00;0.00;;;29.80;44.60;;;;;;5052787;28;20045;-72
2022/05/02 02:33:38;;;;;;;0.22;0.22;;;30.20;44.30;;;;;;5052248;28;20393;-72
2022/05/02 02:36:04;;;;;;;0.20;0.20;;;30.30;44.10;;;;;;5047642;28;20108;-72
2022/05/02 02:38:31;;;;;;;0.08;0.08;;;30.30;43.50;;;;;;5044154;28;20108;-72
2022/05/02 02:40:57;;;;;;;0.00;0.00;;;30.30;43.00;;;;;;5046215;28;20017;-73
2022/05/02 02:43:23;;;;;;;0.00;0.00;;;30.30;43.00;;;;;;5044085;28;20078;-71
2022/05/02 02:45:49;;;;;;;1.83;1.73;;;30.50;42.60;;;;;;5045407;28;20369;-73
2022/05/02 02:48:15;;;;;;;0.52;0.47;;;30.40;42.60;;;;;;5052344;28;20025;-72
2022/05/02 02:50:41;;;;;;;0.00;0.00;;;30.80;41.80;;;;;;5045958;28;20022;-72
2022/05/02 02:53:07;;;;;;;0.85;0.85;;;30.80;41.30;;;;;;5038739;28;20072;-72
2022/05/02 02:55:35;;;;;;;2.08;1.98;;;31.00;41.30;;;;;;5041696;28;20053;-74
2022/05/02 02:58:01;;;;;;;0.00;0.00;;;31.20;41.40;;;;;;5045673;28;20044;-72
2022/05/02 03:00:27;;;;;;;9.52;3.00;;;30.00;42.50;;;;;;5051166;28;20040;-72
2022/05/02 03:02:54;;;;;;;0.03;0.03;;;30.20;42.10;;;;;;5051723;28;20129;-71
2022/05/02 03:08:05;;;;;;;0.45;0.45;;;30.80;41.80;;;;;;5051520;28;20075;-72
2022/05/02 03:10:31;;;;;;;0.00;0.00;;;30.70;40.90;;;;;;5046462;28;20479;-72
2022/05/02 03:12:58;;;;;;;3.75;2.28;;;30.50;41.50;;;;;;5043754;28;20033;-73
2022/05/02 03:15:24;;;;;;;0.00;0.00;;;30.80;40.70;;;;;;5050596;28;20575;-72
2022/05/02 03:17:50;;;;;;;0.00;0.00;;;30.40;40.10;;;;;;5049504;28;20083;-72
2022/05/02 03:20:16;;;;;;;0.10;0.10;;;30.20;41.40;;;;;;5048299;28;20043;-71
2022/05/02 03:22:42;;;;;;;1.30;1.30;;;29.10;42.50;;;;;;5051314;28;20036;-72
2022/05/02 03:25:09;;;;;;;0.00;0.00;;;28.00;43.70;;;;;;5045685;28;20063;-72
2022/05/02 03:27:35;;;;;;;0.05;0.05;;;27.70;44.50;;;;;;5034161;28;20037;-72
2022/05/02 03:30:01;;;;;;;0.00;0.00;;;27.60;45.10;;;;;;5042115;28;20083;-71
2022/05/02 03:32:27;;;;;;;0.17;0.10;;;27.50;45.20;;;;;;5051925;28;20025;-71
2022/05/02 03:34:53;;;;;;;0.10;0.10;;;27.30;45.70;;;;;;5055563;28;20025;-73
2022/05/02 03:37:20;;;;;;;0.00;0.00;;;27.00;45.70;;;;;;5046658;28;20079;-71
2022/05/02 03:39:46;;;;;;;0.00;0.00;;;26.90;46.70;;;;;;5050418;28;20107;-73
2022/05/02 03:42:12;;;;;;;2.83;2.63;;;25.90;47.80;;;;;;5053097;28;20113;-73
2022/05/02 03:44:38;;;;;;;0.00;0.00;;;26.00;48.00;;;;;;5044150;28;20025;-73
2022/05/02 03:47:04;;;;;;;0.30;0.17;;;26.30;48.00;;;;;;5036926;28;20025;-73
2022/05/02 03:49:30;;;;;;;0.00;0.00;;;26.20;48.30;;;;;;5048408;28;20079;-73
2022/05/02 03:51:56;;;;;;;0.35;0.35;;;26.50;47.90;;;;;;5048089;28;20035;-73
2022/05/02 03:54:23;;;;;;;0.00;0.00;;;26.60;47.50;;;;;;5046850;28;20111;-73
2022/05/02 03:56:49;;;;;;;0.00;0.00;;;26.20;48.00;;;;;;5066844;28;20040;-73
2022/05/02 03:59:15;;;;;;;0.00;0.00;;;25.70;49.30;;;;;;5041809;28;20397;-71
2022/05/02 04:01:42;;;;;;;0.00;0.00;;;25.60;49.80;;;;;;5048083;28;20107;-72
2022/05/02 04:04:08;;;;;;;0.00;0.00;;;25.80;49.50;;;;;;5051444;28;20461;-72
2022/05/02 04:06:34;;;;;;;0.00;0.00;;;25.80;49.60;;;;;;5052079;28;20388;-72
2022/05/02 04:09:01;;;;;;;0.00;0.00;;;26.00;50.00;;;;;;5045470;28;20023;-72
2022/05/02 04:11:27;;;;;;;0.00;0.00;;;26.30;49.10;;;;;;5039161;28;20384;-72
2022/05/02 04:13:53;;;;;;;22.23;5.32;;;26.40;49.10;;;;;;5045424;28;20154;-72
2022/05/02 04:16:19;;;;;;;0.00;0.00;;;26.30;48.00;;;;;;5039806;28;20385;-72
2022/05/02 04:18:45;;;;;;;1.00;1.00;;;26.00;49.00;;;;;;5053084;28;20384;-72
2022/05/02 04:21:12;;;;;;;0.00;0.00;;;26.10;49.00;;;;;;5052038;28;20029;-73
2022/05/02 04:23:38;;;;;;;0.00;0.00;;;26.20;48.90;;;;;;5044898;28;20040;-72
2022/05/02 04:26:04;;;;;;;0.00;0.00;;;26.10;49.40;;;;;;5044314;28;20028;-73
2022/05/02 04:28:30;;;;;;;0.30;0.30;;;26.00;49.40;;;;;;5045118;28;20499;-72
2022/05/02 04:30:57;;;;;;;0.00;0.00;;;26.50;48.90;;;;;;5040205;28;20429;-74
2022/05/02 04:33:23;;;;;;;0.10;0.10;;;26.40;47.70;;;;;;5037964;28;20057;-73
2022/05/02 04:35:50;;;;;;;0.00;0.00;;;26.50;47.60;;;;;;5055393;28;20028;-73
2022/05/02 04:38:16;;;;;;;0.00;0.00;;;26.10;48.30;;;;;;5044158;28;20035;-73
2022/05/02 04:40:42;;;;;;;0.00;0.00;;;26.20;48.00;;;;;;5044320;28;20057;-73
2022/05/02 04:43:09;;;;;;;0.00;0.00;;;26.40;47.70;;;;;;5053513;28;20033;-73
2022/05/02 04:45:35;;;;;;;0.00;0.00;;;26.40;47.70;;;;;;5044020;28;20445;-73
2022/05/02 04:48:01;;;;;;;5.85;2.40;;;26.60;47.40;;;;;;5050353;28;20108;-73
2022/05/02 04:50:27;;;;;;;0.10;0.10;;;26.70;47.30;;;;;;5047403;28;20025;-72
2022/05/02 04:52:56;;;;;;;0.00;0.00;;;26.50;48.20;;;;;;5047882;28;20063;-74
2022/05/02 04:55:22;;;;;;;4.60;0.50;;;26.60;47.90;;;;;;5054325;28;20017;-72
2022/05/02 04:57:49;;;;;;;0.03;0.03;;;26.50;47.30;;;;;;5046807;28;20052;-71
2022/05/02 05:00:16;;;;;;;2.05;1.95;;;26.40;47.80;;;;;;5050781;28;20050;-72
2022/05/02 05:02:42;;;;;;;12.82;1.90;;;26.20;49.20;;;;;;5046416;28;20111;-72
2022/05/02 05:05:09;;;;;;;0.05;0.05;;;25.80;50.20;;;;;;5052925;28;20033;-72
2022/05/02 05:07:39;;;;;;;0.00;0.00;;;25.60;51.30;;;;;;5051698;28;20390;-72
2022/05/02 05:10:07;;;;;;;2.40;0.47;;;25.70;51.90;;;;;;5055477;28;20096;-72
2022/05/02 05:12:51;;;;;;;0.28;0.28;;;26.00;51.30;;;;;;5055778;28;20028;-72
2022/05/02 05:18:40;;;;;;;5.65;0.98;;;26.40;51.80;;;;;;5044660;28;20036;-72
2022/05/02 05:21:27;;;;;;;0.00;0.00;;;26.20;53.50;;;;;;5060141;28;20480;-73
2022/05/02 05:24:17;;;;;;;49.33;3.50;;;26.30;53.80;;;;;;5051939;28;20154;-72
2022/05/02 05:27:16;;;;;;;0.60;0.38;;;26.10;54.50;;;;;;5054049;28;20031;-72
2022/05/02 05:30:05;;;;;;;0.00;0.00;;;26.10;54.50;;;;;;5047845;28;20053;-73
2022/05/02 05:32:52;;;;;;;0.47;0.47;;;26.10;55.30;;;;;;5044492;28;20104;-72
2022/05/02 05:36:01;;;;;;;0.05;0.05;;;26.30;54.70;;;;;;5057466;28;20043;-72
2022/05/02 05:38:35;;;;;;;5.38;1.00;;;26.60;53.70;;;;;;5050179;28;20025;-72
2022/05/02 05:41:30;;;;;;;0.10;0.10;;;26.30;53.60;;;;;;5053852;28;20477;-72
2022/05/02 05:44:33;;;;;;;0.35;0.30;;;26.10;54.40;;;;;;5046556;28;20045;-72
2022/05/02 05:47:33;;;;;;;1.08;0.28;;;26.30;53.90;;;;;;5056752;28;20074;-72
2022/05/02 05:50:11;;;;;;;2.50;2.40;;;26.30;53.50;;;;;;5054970;28;20049;-72
2022/05/02 05:52:59;;;;;;;0.00;0.00;;;26.40;52.80;;;;;;5055769;28;20618;-73
2022/05/02 05:56:23;;;;;;;15.57;0.43;;;25.90;53.20;;;;;;5050190;28;20683;-72
2022/05/02 05:59:16;;;;;;;0.00;0.00;;;26.40;52.70;;;;;;5045972;28;20497;-71
2022/05/02 06:01:55;;;;;;;2.75;0.80;;;26.60;52.20;;;;;;5056620;28;20032;-72
2022/05/02 06:04:25;;;;;;;0.00;0.00;;;26.50;51.40;;;;;;5047978;28;20025;-71
2022/05/02 06:06:53;;;;;;;0.30;0.30;;;26.00;52.50;;;;;;5052205;28;20021;-71
2022/05/02 06:09:20;;;;;;;0.30;0.30;;;26.30;52.60;;;;;;5051986;28;20025;-71
2022/05/02 06:11:47;;;;;;;0.00;0.00;;;26.40;52.20;;;;;;5054378;28;20031;-71
2022/05/02 06:14:14;;;;;;;0.00;0.00;;;26.50;51.70;;;;;;5047535;28;20556;-72
2022/05/02 06:19:28;;;;;;;0.00;0.00;;;26.30;51.00;;;;;;5047335;28;20098;-72
2022/05/02 06:21:55;;;;;;;0.00;0.00;;;26.70;51.00;;;;;;5047567;28;20028;-73
2022/05/02 06:24:26;;;;;;;1.00;0.75;;;26.90;50.40;;;;;;5044285;28;20146;-73
2022/05/02 06:26:54;;;;;;;0.10;0.10;;;27.00;49.70;;;;;;5039609;28;20021;-72
2022/05/02 06:29:22;;;;;;;0.10;0.10;;;26.60;49.40;;;;;;5051865;28;20021;-72
2022/05/02 06:31:52;;;;;;;1.45;0.55;;;26.70;49.90;;;;;;5042599;28;20029;-74
2022/05/02 06:34:27;;;;;;;0.00;0.00;;;26.80;48.80;;;;;;5053384;28;20025;-73
2022/05/02 06:37:11;;;;;;;0.10;0.10;;;26.60;49.00;;;;;;5045178;28;20049;-73
2022/05/02 06:40:01;;;;;;;0.30;0.30;;;26.60;49.00;;;;;;5050765;28;20021;-74
2022/05/02 06:42:43;;;;;;;0.52;0.22;;;27.00;49.20;;;;;;5050861;28;20055;-74
2022/05/02 06:45:44;;;;;;;0.57;0.43;;;26.90;47.50;;;;;;5043802;28;20483;-74
2022/05/02 06:48:35;;;;;;;16.00;0.75;;;26.70;48.20;;;;;;5045166;28;20021;-74
2022/05/02 06:51:09;;;;;;;0.40;0.40;;;26.60;48.50;;;;;;5041961;28;20378;-74
2022/05/02 06:53:48;;;;;;;0.00;0.00;;;26.80;48.10;;;;;;5037698;28;20068;-73
2022/05/02 06:56:43;;;;;;;2.03;1.92;;;26.90;48.20;;;;;;5043772;28;20108;-73
2022/05/02 06:59:35;;;;;;;0.00;0.00;;;27.10;48.00;;;;;;5043487;28;20036;-74
2022/05/02 07:02:13;;;;;;;1.45;0.82;;;27.40;47.50;;;;;;5042432;28;20030;-74
2022/05/02 07:04:53;;;;;;;0.00;0.00;;;27.10;47.80;;;;;;5045743;28;20021;-73
2022/05/02 07:07:36;;;;;;;0.00;0.00;;;26.90;47.70;;;;;;5038149;28;20485;-74
2022/05/02 07:10:16;;;;;;;1.35;0.50;;;26.70;47.70;;;;;;5023471;28;20062;-74
2022/05/02 07:13:09;;;;;;;0.00;0.00;;;27.00;48.10;;;;;;5073845;28;20151;-74
2022/05/02 07:15:42;;;;;;;0.10;0.10;;;27.20;48.60;;;;;;5035865;28;20057;-74
2022/05/02 07:18:27;;;;;;;0.00;0.00;;;27.80;48.10;;;;;;5041641;28;20022;-74
2022/05/02 07:21:15;;;;;;;3.20;2.72;;;28.00;46.20;;;;;;5051973;28;20086;-74
2022/05/02 07:23:57;;;;;;;0.00;0.00;;;28.50;45.50;;;;;;5050393;28;20055;-74
2022/05/02 07:26:27;;;;;;;7.40;1.95;;;27.80;46.80;;;;;;5039265;28;20048;-74
2022/05/02 07:28:58;;;;;;;0.65;0.10;;;27.80;45.80;;;;;;5033564;28;20478;-73
2022/05/02 07:31:25;;;;;;;0.00;0.00;;;27.90;46.10;;;;;;5042900;28;20025;-73
2022/05/02 07:33:53;;;;;;;0.00;0.00;;;28.20;46.10;;;;;;5042412;28;20384;-73
2022/05/02 07:36:24;;;;;;;0.70;0.70;;;28.40;46.60;;;;;;5050137;28;20201;-74
2022/05/02 07:38:58;;;;;;;0.08;0.08;;;28.40;45.30;;;;;;5044481;28;20511;-73
2022/05/02 07:41:26;;;;;;;0.38;0.38;;;28.30;45.20;;;;;;5044400;28;20026;-73
2022/05/02 07:44:06;;;;;;;0.50;0.28;;;28.80;45.10;;;;;;5035204;28;20029;-73
2022/05/02 07:46:38;;;;;;;1.27;1.27;;;29.00;44.20;;;;;;5039702;28;20025;-74
2022/05/02 07:49:07;;;;;;;4.60;1.83;;;28.60;44.40;;;;;;5043980;28;20074;-74
2022/05/02 07:51:40;;;;;;;0.00;0.00;;;27.90;45.00;;;;;;5047574;28;20525;-74
2022/05/02 07:54:13;;;;;;;0.00;0.00;;;27.90;44.80;;;;;;5041711;28;20068;-74
2022/05/02 07:56:41;;;;;;;0.00;0.00;;;28.30;46.80;;;;;;5044104;28;20044;-73
2022/05/02 07:59:09;;;;;;;0.00;0.00;;;28.60;47.40;;;;;;5050096;28;21177;-74
2022/05/02 08:01:35;;;;;;;0.00;0.00;;;28.80;44.90;;;;;;5046866;28;20449;-74
2022/05/02 08:04:01;;;;;;;0.28;0.28;;;29.00;43.80;;;;;;5045242;28;20115;-73
2022/05/02 08:06:45;;;;;;;0.40;0.40;;;29.00;43.20;;;;;;5041090;28;20064;-72
2022/05/02 08:09:38;;;;;;;4.90;0.63;;;28.60;44.50;;;;;;5045800;28;20048;-73
2022/05/02 08:12:33;;;;;;;1.30;1.30;;;28.50;45.00;;;;;;5041261;28;20068;-73
2022/05/02 08:18:34;;;;;;;0.20;0.20;;;28.50;45.10;;;;;;5035260;28;20033;-74
2022/05/02 08:21:09;;;;;;;0.57;0.40;;;28.60;45.60;;;;;;5036626;28;20454;-74
2022/05/02 08:30:35;;;;;;;0.00;0.00;;;28.40;45.20;;;;;;5036028;28;20115;-73
2022/05/02 08:33:09;;;;;;;0.60;0.60;;;28.40;45.70;;;;;;4992017;28;20116;-73
2022/05/02 08:36:05;;;;;;;0.60;0.38;;;28.40;45.30;;;;;;5008183;28;20065;-73
2022/05/02 08:38:55;;;;;;;0.82;0.82;;;28.10;46.60;;;;;;5030855;28;20127;-73
2022/05/02 08:41:39;;;;;;;1.38;1.35;;;28.30;45.60;;;;;;5044981;28;20021;-73
2022/05/02 08:44:43;;;;;;;0.00;0.00;;;28.40;44.70;;;;;;5050440;28;20025;-73
2022/05/02 08:47:21;;;;;;;0.00;0.00;;;28.30;44.90;;;;;;5041357;28;20457;-73
2022/05/02 08:50:18;;;;;;;0.30;0.30;;;28.60;45.40;;;;;;5042187;28;20056;-73
2022/05/02 08:53:12;;;;;;;9.68;1.33;;;28.70;44.90;;;;;;5051091;28;20021;-74
2022/05/02 08:56:15;;;;;;;4.90;3.33;;;28.80;43.50;;;;;;5037322;28;20021;-73
2022/05/02 08:59:25;;;;;;;0.80;0.80;;;28.90;42.80;;;;;;5042706;28;20043;-73
2022/05/02 09:02:10;;;;;;;0.00;0.00;;;28.70;44.00;;;;;;5043498;28;20030;-74
2022/05/02 09:04:59;;;;;;;0.32;0.32;;;29.10;43.10;;;;;;5033935;28;20108;-73
2022/05/02 09:08:03;;;;;;;0.20;0.20;;;29.40;43.20;;;;;;5041617;28;20538;-73
2022/05/02 09:10:47;;;;;;;0.00;0.00;;;29.00;42.00;;;;;;5037354;28;20056;-74
2022/05/02 09:13:42;;;;;;;1.50;1.40;;;28.90;43.70;;;;;;5038474;28;20509;-74
2022/05/02 09:16:41;;;;;;;0.88;0.85;;;28.90;43.10;;;;;;5044524;28;20366;-74
2022/05/02 09:19:28;;;;;;;0.00;0.00;;;29.00;42.20;;;;;;5039839;28;20029;-74
2022/05/02 09:22:14;;;;;;;2.08;1.95;;;28.90;42.00;;;;;;5035896;28;20032;-74
2022/05/02 09:25:33;;;;;;;2.67;1.08;;;29.20;42.20;;;;;;5033695;28;20029;-73
2022/05/02 09:28:05;;;;;;;0.00;0.00;;;29.20;40.90;;;;;;5000057;28;20030;-73
2022/05/02 09:30:32;;;;;;;0.45;0.30;;;29.00;41.30;;;;;;4994084;28;20486;-73
2022/05/02 09:33:14;;;;;;;0.00;0.00;;;29.10;42.30;;;;;;5015912;28;20030;-73
2022/05/02 09:35:55;;;;;;;1.17;1.02;;;28.90;43.00;;;;;;5044855;28;20496;-73
2022/05/02 09:38:29;;;;;;;0.08;0.08;;;29.00;42.40;;;;;;5054031;28;20029;-73
2022/05/02 09:41:00;;;;;;;1.65;0.57;;;29.20;41.70;;;;;;5045806;28;20032;-73
2022/05/02 09:49:52;;;;;;;33.72;9.38;;;28.80;41.50;;;;;;5044821;28;20039;-74
2022/05/02 09:52:31;;;;;;;31.88;1.45;;;29.20;41.10;;;;;;5048845;28;20028;-73
2022/05/02 09:58:35;;;;;;;0.00;0.00;;;29.30;40.60;;;;;;5055785;28;20043;-74
2022/05/02 10:01:06;;;;;;;14.25;4.85;;;29.80;40.40;;;;;;5055511;28;20017;-74
2022/05/02 10:04:01;;;;;;;4.47;1.13;;;30.20;39.30;;;;;;5054274;28;20033;-74
2022/05/02 10:06:34;;;;;;;0.00;0.00;;;30.20;40.40;;;;;;5055084;28;20041;-74
2022/05/02 10:09:05;;;;;;;0.00;0.00;;;30.30;40.30;;;;;;5053803;28;20461;-73
2022/05/02 10:11:49;;;;;;;0.32;0.32;;;30.50;39.20;;;;;;5049942;28;20026;-73
2022/05/02 10:14:31;;;;;;;2.30;1.50;;;30.50;39.70;;;;;;5035600;28;20022;-73
2022/05/02 10:17:07;;;;;;;1.85;0.85;;;30.70;37.10;;;;;;5033889;28;20378;-73
2022/05/02 10:20:01;;;;;;;0.00;0.00;;;30.00;36.20;;;;;;5035253;28;20041;-72
2022/05/02 10:22:43;;;;;;;1.27;0.98;;;30.00;37.00;;;;;;5045590;28;20082;-73
2022/05/02 10:25:36;;;;;;;0.68;0.68;;;29.90;36.70;;;;;;5055214;28;20022;-73
2022/05/02 10:28:48;;;;;;;0.15;0.15;;;29.90;36.20;;;;;;5054890;28;20017;-74
2022/05/02 10:31:25;;;;;;;6.80;1.70;;;29.80;37.80;;;;;;5054972;28;20017;-73
2022/05/02 10:33:53;;;;;;;0.00;0.00;;;29.50;39.90;;;;;;5054902;28;20017;-73
2022/05/02 10:36:23;;;;;;;0.00;0.00;;;29.40;38.60;;;;;;5053230;28;20025;-74
2022/05/02 10:38:55;;;;;;;0.00;0.00;;;29.90;38.50;;;;;;5046822;28;20306;-74
2022/05/02 10:41:43;;;;;;;0.00;0.00;;;29.90;41.00;;;;;;5053056;28;20021;-73
2022/05/02 10:44:13;;;;;;;0.00;0.00;;;29.80;39.70;;;;;;5053450;28;20111;-74
2022/05/02 10:46:44;;;;;;;4.90;4.47;;;30.20;39.20;;;;;;5054275;28;20025;-74
2022/05/02 10:49:15;;;;;;;0.00;0.00;;;29.90;38.50;;;;;;5053306;28;20036;-73
2022/05/02 10:51:59;;;;;;;0.00;0.00;;;30.10;39.80;;;;;;5052789;28;20389;-74
2022/05/02 10:54:39;;;;;;;0.00;0.00;;;30.30;39.50;;;;;;5047782;28;20049;-73
2022/05/02 10:57:45;;;;;;;0.00;0.00;;;30.20;38.70;;;;;;5051952;28;20388;-73
2022/05/02 11:00:12;;;;;;;0.00;0.00;;;30.00;40.00;;;;;;5054025;28;20078;-73
2022/05/02 11:03:12;;;;;;;0.00;0.00;;;29.80;39.70;;;;;;5054321;28;20024;-73
2022/05/02 11:05:54;;;;;;;0.00;0.00;;;29.80;40.20;;;;;;5054211;28;20382;-74
2022/05/02 11:08:36;;;;;;;0.00;0.00;;;30.00;40.70;;;;;;5052811;28;20029;-74
2022/05/02 11:11:07;;;;;;;0.00;0.00;;;30.20;39.80;;;;;;5053824;28;20373;-75
2022/05/02 11:14:11;;;;;;;1.67;0.90;;;30.30;39.60;;;;;;5052589;28;20026;-74
2022/05/02 11:16:55;;;;;;;0.00;0.00;;;30.00;39.70;;;;;;5041547;28;20076;-74
2022/05/02 11:22:37;;;;;;;0.35;0.28;;;30.40;39.60;;;;;;5051314;28;20109;-73
2022/05/02 11:25:21;;;;;;;0.00;0.00;;;29.90;40.00;;;;;;5043824;28;20041;-73
2022/05/02 11:28:05;;;;;;;1.75;1.65;;;29.60;39.40;;;;;;5044077;28;20199;-73
2022/05/02 11:30:46;;;;;;;0.00;0.00;;;29.20;40.70;;;;;;5043824;28;20374;-73
2022/05/02 11:33:29;;;;;;;0.00;0.00;;;29.00;40.80;;;;;;5052367;28;20024;-73
2022/05/02 11:36:01;;;;;;;0.75;0.75;;;28.90;41.40;;;;;;5040876;28;20446;-73
2022/05/02 11:38:36;;;;;;;0.55;0.55;;;28.70;42.10;;;;;;5034898;28;20037;-73
2022/05/02 11:41:21;;;;;;;0.25;0.25;;;28.80;41.70;;;;;;5040758;28;20030;-74
2022/05/02 11:43:48;;;;;;;4.63;0.65;;;28.80;41.40;;;;;;5032492;28;20378;-73
2022/05/02 11:46:18;;;;;;;0.00;0.00;;;28.80;41.10;;;;;;5053425;28;20025;-73
2022/05/02 11:49:02;;;;;;;0.45;0.43;;;28.70;42.10;;;;;;5051750;28;20507;-73
2022/05/02 11:51:31;;;;;;;0.00;0.00;;;28.50;42.40;;;;;;5053304;28;20029;-74
2022/05/02 11:54:22;;;;;;;0.00;0.00;;;28.80;42.40;;;;;;5053170;28;20041;-75
2022/05/02 11:57:18;;;;;;;4.18;3.85;;;28.90;41.60;;;;;;5050320;28;20017;-74
2022/05/02 11:59:55;;;;;;;0.00;0.00;;;28.80;42.70;;;;;;5048044;28;20482;-74
2022/05/02 12:02:46;;;;;;;9.18;8.43;;;28.60;43.40;;;;;;5049704;28;20033;-73
2022/05/02 12:05:18;;;;;;;0.00;0.00;;;28.50;43.80;;;;;;5045327;28;20175;-74
2022/05/02 12:07:54;;;;;;;1.55;1.00;;;28.30;44.50;;;;;;5045162;28;20039;-75
2022/05/02 12:10:31;;;;;;;0.00;0.00;;;28.30;44.60;;;;;;5071412;28;20051;-74
2022/05/02 12:12:58;;;;;;;0.75;0.63;;;28.10;45.50;;;;;;5071540;28;20028;-74
2022/05/02 12:15:25;;;;;;;0.00;0.00;;;28.00;44.60;;;;;;5061855;28;20025;-74
2022/05/02 12:18:03;;;;;;;0.00;0.00;;;28.00;45.20;;;;;;5056314;28;20074;-74
2022/05/02 12:20:32;;;;;;;0.00;0.00;;;28.10;45.30;;;;;;5053318;28;20412;-74
2022/05/02 12:23:18;;;;;;;0.00;0.00;;;28.20;45.30;;;;;;5054415;28;20047;-75
2022/05/02 12:25:54;;;;;;;0.00;0.00;;;28.20;46.10;;;;;;5052995;28;20389;-73
2022/05/02 12:28:43;;;;;;;0.00;0.00;;;27.90;46.70;;;;;;5052598;28;20031;-74
2022/05/02 12:31:15;;;;;;;0.00;0.00;;;27.60;47.10;;;;;;5052121;28;20116;-74
2022/05/02 12:33:43;;;;;;;0.00;0.00;;;27.70;47.20;;;;;;5053015;28;20036;-74
2022/05/02 12:36:20;;;;;;;0.00;0.00;;;27.80;48.20;;;;;;5053315;28;20082;-74
2022/05/02 12:38:54;;;;;;;0.00;0.00;;;27.60;48.70;;;;;;5053175;28;20163;-72
2022/05/02 12:41:28;;;;;;;0.00;0.00;;;27.60;48.40;;;;;;5051327;28;20366;-73
2022/05/02 12:44:03;;;;;;;0.00;0.00;;;27.70;48.40;;;;;;5051587;28;20033;-73
2022/05/02 12:46:37;;;;;;;0.00;0.00;;;27.80;48.20;;;;;;5051387;28;20175;-73
2022/05/02 12:49:04;;;;;;;3.63;3.42;;;27.80;48.20;;;;;;5051399;28;20025;-73
2022/05/02 12:51:32;;;;;;;0.00;0.00;;;27.80;48.30;;;;;;5052554;28;20024;-73
2022/05/02 12:54:12;;;;;;;0.00;0.00;;;27.50;48.90;;;;;;5051076;28;20049;-73
2022/05/02 13:02:42;;;;;;;0.32;0.32;;;27.20;49.00;;;;;;5052671;28;20067;-74
2022/05/02 13:05:12;;;;;;;0.00;0.00;;;27.30;49.50;;;;;;5052428;28;20029;-73
2022/05/02 13:07:57;;;;;;;0.70;0.70;;;27.40;48.70;;;;;;5052395;28;20071;-74
2022/05/02 13:10:28;;;;;;;0.00;0.00;;;27.50;49.40;;;;;;5054235;28;20350;-74
2022/05/02 13:13:02;;;;;;;0.00;0.00;;;27.20;49.90;;;;;;5056402;28;20032;-74
2022/05/02 13:15:40;;;;;;;0.00;0.00;;;27.00;50.60;;;;;;5056285;28;20017;-74
2022/05/02 13:18:13;;;;;;;0.00;0.00;;;27.00;50.90;;;;;;5056267;28;20087;-73
2022/05/02 13:20:40;;;;;;;0.00;0.00;;;27.10;51.00;;;;;;5056143;28;20028;-74
2022/05/02 13:23:10;;;;;;;0.08;0.08;;;26.90;52.10;;;;;;5048963;28;20040;-74
2022/05/02 13:25:55;;;;;;;0.00;0.00;;;27.00;51.50;;;;;;5051039;28;20021;-74
2022/05/02 13:28:24;;;;;;;0.00;0.00;;;26.80;51.80;;;;;;5054937;28;20119;-74
2022/05/02 13:30:57;;;;;;;0.00;0.00;;;26.90;51.10;;;;;;5050483;28;20026;-74
2022/05/02 13:33:36;;;;;;;2.83;2.70;;;26.80;51.30;;;;;;5045704;28;20432;-73
2022/05/02 13:36:05;;;;;;;0.00;0.00;;;26.50;53.20;;;;;;5055972;28;20021;-74
2022/05/02 13:39:01;;;;;;;0.00;0.00;;;26.50;52.60;;;;;;5055701;28;20508;-74
2022/05/02 13:41:47;;;;;;;0.00;0.00;;;26.20;53.30;;;;;;5048928;28;20044;-73
2022/05/02 13:44:22;;;;;;;0.22;0.22;;;26.30;53.10;;;;;;5053118;28;20029;-74
2022/05/02 13:47:02;;;;;;;0.00;0.00;;;26.40;53.50;;;;;;5052668;28;20029;-73
2022/05/02 13:49:34;;;;;;;0.00;0.00;;;26.00;55.10;;;;;;5052743;28;20116;-74
2022/05/02 13:52:23;;;;;;;0.00;0.00;;;25.70;55.90;;;;;;5038463;28;20029;-74
2022/05/02 13:54:53;;;;;;;10.55;9.63;;;25.50;56.00;;;;;;5055335;28;20053;-74
2022/05/02 13:57:34;;;;;;;0.00;0.00;;;25.60;56.00;;;;;;5055499;28;20018;-73
2022/05/02 14:03:10;;;;;;;0.00;0.00;;;25.60;56.40;;;;;;5055394;28;20024;-74
2022/05/02 14:05:47;;;;;;;0.40;0.40;;;25.40;56.40;;;;;;5054075;28;20108;-74
2022/05/02 14:08:15;;;;;;;0.00;0.00;;;25.10;58.20;;;;;;5054141;28;20511;-73